createdAt,value
2023-02-11T00:01:53.049Z,-3.58
2023-02-11T00:04:56.304Z,-3.64
2023-02-11T00:07:59.502Z,-3.70
2023-02-11T00:11:01.987Z,-3.68
2023-02-11T00:14:11.311Z,-3.69
2023-02-11T00:17:14.607Z,-3.64
2023-02-11T00:20:18.534Z,-3.73
2023-02-11T00:23:22.571Z,-3.72
2023-02-11T00:26:27.470Z,-3.72
2023-02-11T00:29:30.473Z,-3.82
2023-02-11T00:32:34.590Z,-3.88
2023-02-11T00:35:40.141Z,-3.81
2023-02-11T00:38:47.517Z,-3.87
2023-02-11T00:41:51.240Z,-3.86
2023-02-11T00:44:54.824Z,-3.92
2023-02-11T00:47:57.957Z,-3.89
2023-02-11T00:51:01.010Z,-3.95
2023-02-11T00:54:04.739Z,-3.95
2023-02-11T00:57:07.937Z,-3.97
2023-02-11T01:00:12.944Z,-3.96
2023-02-11T01:03:15.762Z,-3.95
2023-02-11T01:06:19.983Z,-4.04
2023-02-11T01:09:23.384Z,-4.08
2023-02-11T01:12:26.589Z,-4.07
2023-02-11T01:15:31.665Z,-4.00
2023-02-11T01:18:35.220Z,-3.80
2023-02-11T01:21:39.039Z,-3.86
2023-02-11T01:24:41.628Z,-3.96
2023-02-11T01:27:43.763Z,-3.90
2023-02-11T01:30:46.823Z,-3.90
2023-02-11T01:33:52.341Z,-3.90
2023-02-11T01:36:59.918Z,-4.00
2023-02-11T01:40:05.529Z,-3.95
2023-02-11T01:43:13.229Z,-4.01
2023-02-11T01:46:30.321Z,-4.00
2023-02-11T01:49:45.061Z,-4.01
2023-02-11T01:52:49.027Z,-4.09
2023-02-11T01:56:12.193Z,-4.11
2023-02-11T01:59:21.392Z,-4.15
2023-02-11T02:02:32.096Z,-4.18
2023-02-11T02:05:51.158Z,-4.22
2023-02-11T02:09:05.815Z,-4.25
2023-02-11T02:12:08.755Z,-4.19
2023-02-11T02:15:26.712Z,-4.18
2023-02-11T02:18:51.230Z,-4.13
2023-02-11T02:22:32.863Z,-4.22
2023-02-11T02:25:51.057Z,-4.20
2023-02-11T02:29:13.016Z,-4.13
2023-02-11T02:32:16.281Z,-4.07
2023-02-11T02:35:27.579Z,-4.20
2023-02-11T02:38:33.798Z,-4.30
2023-02-11T02:41:38.577Z,-4.32
2023-02-11T02:44:41.465Z,-4.29
2023-02-11T02:47:44.661Z,-4.24
2023-02-11T02:50:47.833Z,-4.27
2023-02-11T02:54:09.260Z,-4.32
2023-02-11T02:57:12.855Z,-4.32
2023-02-11T03:00:22.142Z,-4.29
2023-02-11T03:03:42.876Z,-4.30
2023-02-11T03:06:58.423Z,-4.33
2023-02-11T03:10:14.674Z,-4.31
2023-02-11T03:13:20.543Z,-4.29
2023-02-11T03:16:26.391Z,-4.38
2023-02-11T03:19:38.220Z,-4.43
2023-02-11T03:22:44.090Z,-4.44
2023-02-11T03:25:54.146Z,-4.33
2023-02-11T03:28:57.281Z,-4.42
2023-02-11T03:32:17.691Z,-4.43
2023-02-11T03:35:22.888Z,-4.41
2023-02-11T03:38:40.356Z,-4.52
2023-02-11T03:41:44.936Z,-4.55
2023-02-11T03:44:54.224Z,-4.54
2023-02-11T03:48:00.866Z,-4.53
2023-02-11T03:51:06.740Z,-4.53
2023-02-11T03:54:15.051Z,-4.55
2023-02-11T03:57:18.008Z,-4.42
2023-02-11T04:00:21.299Z,-4.50
2023-02-11T04:03:24.987Z,-4.54
2023-02-11T04:06:27.701Z,-4.47
2023-02-11T04:09:30.607Z,-4.54
2023-02-11T04:12:35.641Z,-4.47
2023-02-11T04:15:40.994Z,-4.45
2023-02-11T04:18:44.008Z,-4.41
2023-02-11T04:21:47.782Z,-4.43
2023-02-11T04:24:51.313Z,-4.53
2023-02-11T04:27:55.079Z,-4.50
2023-02-11T04:30:58.642Z,-4.49
2023-02-11T04:34:02.116Z,-4.46
2023-02-11T04:37:06.750Z,-4.39
2023-02-11T04:40:10.520Z,-4.46
2023-02-11T04:43:14.632Z,-4.49
2023-02-11T04:46:17.872Z,-4.48
2023-02-11T04:49:21.609Z,-4.43
2023-02-11T04:52:24.532Z,-4.40
2023-02-11T04:55:28.645Z,-4.49
2023-02-11T04:58:32.205Z,-4.45
2023-02-11T05:01:39.688Z,-4.45
2023-02-11T05:04:43.447Z,-4.43
2023-02-11T05:07:46.545Z,-4.50
2023-02-11T05:10:50.100Z,-4.47
2023-02-11T05:13:53.519Z,-4.51
2023-02-11T05:16:56.853Z,-4.53
2023-02-11T05:20:00.197Z,-4.59
2023-02-11T05:23:06.874Z,-4.55
2023-02-11T05:26:12.934Z,-4.56
2023-02-11T05:29:17.692Z,-4.57
2023-02-11T05:32:23.215Z,-4.58
2023-02-11T05:35:26.448Z,-4.68
2023-02-11T05:38:29.833Z,-4.59
2023-02-11T05:41:32.927Z,-4.68
2023-02-11T05:44:36.185Z,-4.76
2023-02-11T05:47:40.014Z,-4.79
2023-02-11T05:50:43.636Z,-4.78
2023-02-11T05:53:47.637Z,-4.68
2023-02-11T05:56:52.075Z,-4.70
2023-02-11T05:59:55.581Z,-4.69
2023-02-11T06:03:01.854Z,-4.63
2023-02-11T06:06:05.860Z,-4.59
2023-02-11T06:09:11.294Z,-4.48
2023-02-11T06:12:15.724Z,-4.49
2023-02-11T06:15:20.250Z,-4.42
2023-02-11T06:18:23.741Z,-4.36
2023-02-11T06:21:42.471Z,-4.32
2023-02-11T06:25:00.765Z,-4.24
2023-02-11T06:28:05.342Z,-4.05
2023-02-11T06:31:10.407Z,-3.96
2023-02-11T06:34:15.803Z,-3.84
2023-02-11T06:37:19.248Z,-3.69
2023-02-11T06:40:21.862Z,-3.59
2023-02-11T06:43:25.538Z,-3.47
2023-02-11T06:46:29.687Z,-3.37
2023-02-11T06:49:32.434Z,-3.23
2023-02-11T06:52:35.149Z,-3.12
2023-02-11T06:55:38.667Z,-2.96
2023-02-11T06:58:42.672Z,-2.78
2023-02-11T07:01:45.190Z,-2.63
2023-02-11T07:04:48.940Z,-2.49
2023-02-11T07:07:53.269Z,-2.41
2023-02-11T07:10:56.727Z,-2.32
2023-02-11T07:14:04.941Z,-2.27
2023-02-11T07:17:08.472Z,-2.14
2023-02-11T07:20:12.800Z,-2.07
2023-02-11T07:23:15.781Z,-1.92
2023-02-11T07:26:19.988Z,-1.73
2023-02-11T07:29:23.138Z,-1.47
2023-02-11T07:32:25.737Z,-1.11
2023-02-11T07:35:28.726Z,-0.97
2023-02-11T07:38:32.165Z,-0.59
2023-02-11T07:41:37.846Z,-0.10
2023-02-11T07:44:41.121Z,0.13
2023-02-11T07:47:44.469Z,0.34
2023-02-11T07:50:47.251Z,0.31
2023-02-11T07:53:50.870Z,0.53
2023-02-11T07:56:53.663Z,0.58
2023-02-11T07:59:56.224Z,0.38
2023-02-11T08:02:58.946Z,0.29
2023-02-11T08:06:06.006Z,0.58
2023-02-11T08:09:10.227Z,0.72
2023-02-11T08:12:12.936Z,0.91
2023-02-11T08:15:15.613Z,1.13
2023-02-11T08:18:18.259Z,1.50
2023-02-11T08:21:21.194Z,1.74
2023-02-11T08:24:24.624Z,1.96
2023-02-11T08:27:28.148Z,2.13
2023-02-11T08:30:30.913Z,2.17
2023-02-11T08:33:33.996Z,2.42
2023-02-11T08:36:40.293Z,2.31
2023-02-11T08:39:43.386Z,2.32
2023-02-11T08:42:46.034Z,2.16
2023-02-11T08:45:49.235Z,2.15
2023-02-11T08:48:52.451Z,2.16
2023-02-11T08:51:56.785Z,2.19
2023-02-11T08:54:59.458Z,2.34
2023-02-11T08:58:02.016Z,2.40
2023-02-11T09:01:14.781Z,2.40
2023-02-11T09:04:19.815Z,2.74
2023-02-11T09:07:23.537Z,2.84
2023-02-11T09:10:26.118Z,2.89
2023-02-11T09:13:29.283Z,2.87
2023-02-11T09:16:33.744Z,3.01
2023-02-11T09:19:36.825Z,3.12
2023-02-11T09:22:39.915Z,3.04
2023-02-11T09:25:49.501Z,3.00
2023-02-11T09:28:53.018Z,3.15
2023-02-11T09:31:56.106Z,3.52
2023-02-11T09:34:58.860Z,3.99
2023-02-11T09:38:01.319Z,4.21
2023-02-11T09:41:08.012Z,4.29
2023-02-11T09:44:28.401Z,4.44
2023-02-11T09:47:40.393Z,4.35
2023-02-11T09:50:55.578Z,4.28
2023-02-11T09:54:05.125Z,4.60
2023-02-11T09:57:26.523Z,4.83
2023-02-11T10:00:33.240Z,4.94
2023-02-11T10:03:39.076Z,5.01
2023-02-11T10:06:52.144Z,4.77
2023-02-11T10:10:11.256Z,4.84
2023-02-11T10:13:23.068Z,5.03
2023-02-11T10:16:34.655Z,5.15
2023-02-11T10:19:40.131Z,5.23
2023-02-11T10:22:45.870Z,5.13
2023-02-11T10:25:55.149Z,5.16
2023-02-11T10:29:00.558Z,5.06
2023-02-11T10:32:08.711Z,5.20
2023-02-11T10:35:16.850Z,5.35
2023-02-11T10:38:19.634Z,5.36
2023-02-11T10:41:27.161Z,5.45
2023-02-11T10:44:33.371Z,5.46
2023-02-11T10:47:38.208Z,5.34
2023-02-11T10:50:41.006Z,5.13
2023-02-11T10:53:45.434Z,5.14
2023-02-11T10:56:51.087Z,5.30
2023-02-11T10:59:58.084Z,5.68
2023-02-11T11:03:02.196Z,6.05
2023-02-11T11:06:06.864Z,6.35
2023-02-11T11:09:27.828Z,6.74
2023-02-11T11:12:33.067Z,6.72
2023-02-11T11:15:38.212Z,6.84
2023-02-11T11:18:42.415Z,6.99
2023-02-11T11:21:47.430Z,7.22
2023-02-11T11:24:55.164Z,7.08
2023-02-11T11:27:59.877Z,6.74
2023-02-11T11:31:03.289Z,6.27
2023-02-11T11:34:39.724Z,6.04
2023-02-11T11:37:42.980Z,5.88
2023-02-11T11:40:45.648Z,5.93
2023-02-11T11:44:24.982Z,6.20
2023-02-11T11:47:29.860Z,6.78
2023-02-11T11:50:58.705Z,7.22
2023-02-11T11:54:04.248Z,7.64
2023-02-11T11:57:14.609Z,7.64
2023-02-11T12:00:41.053Z,7.18
2023-02-11T12:03:47.532Z,6.94
2023-02-11T12:06:55.723Z,7.40
2023-02-11T12:10:17.349Z,7.69
2023-02-11T12:13:32.347Z,7.92
2023-02-11T12:16:44.404Z,7.61
2023-02-11T12:19:48.246Z,7.70
2023-02-11T12:23:10.065Z,7.55
2023-02-11T12:26:20.878Z,7.56
2023-02-11T12:29:42.377Z,7.50
2023-02-11T12:32:45.382Z,7.37
2023-02-11T12:35:56.135Z,7.48
2023-02-11T12:39:09.363Z,7.54
2023-02-11T12:42:37.155Z,7.50
2023-02-11T12:46:00.174Z,7.53
2023-02-11T12:49:19.872Z,7.60
2023-02-11T12:52:32.182Z,7.66
2023-02-11T12:55:39.418Z,7.52
2023-02-11T12:58:45.898Z,7.20
2023-02-11T13:01:50.890Z,7.17
2023-02-11T13:05:01.814Z,7.27
2023-02-11T13:08:30.487Z,7.08
2023-02-11T13:11:52.602Z,6.86
2023-02-11T13:15:01.331Z,6.73
2023-02-11T13:18:13.000Z,7.12
2023-02-11T13:21:16.553Z,7.40
2023-02-11T13:24:38.848Z,7.47
2023-02-11T13:27:52.080Z,7.48
2023-02-11T13:31:03.233Z,7.54
2023-02-11T13:34:23.762Z,7.56
2023-02-11T13:37:29.442Z,7.62
2023-02-11T13:40:33.038Z,7.69
2023-02-11T13:43:36.627Z,7.67
2023-02-11T13:47:00.222Z,7.58
2023-02-11T13:50:07.086Z,7.47
2023-02-11T13:53:10.256Z,7.45
2023-02-11T13:56:23.762Z,7.44
2023-02-11T13:59:27.024Z,7.39
2023-02-11T14:02:55.785Z,7.31
2023-02-11T14:06:27.727Z,7.14
2023-02-11T14:09:36.131Z,7.03
2023-02-11T14:12:38.687Z,7.09
2023-02-11T14:15:43.413Z,7.09
2023-02-11T14:18:46.237Z,6.91
2023-02-11T14:21:53.716Z,6.95
2023-02-11T14:25:00.161Z,7.04
2023-02-11T14:28:10.861Z,7.05
2023-02-11T14:31:22.041Z,7.12
2023-02-11T14:34:41.196Z,7.15
2023-02-11T14:37:50.843Z,7.14
2023-02-11T14:41:08.575Z,7.04
2023-02-11T14:44:17.349Z,6.88
2023-02-11T14:47:44.509Z,6.89
2023-02-11T14:50:50.067Z,6.88
2023-02-11T14:53:55.473Z,6.86
2023-02-11T14:57:23.632Z,6.93
2023-02-11T15:00:35.465Z,6.92
2023-02-11T15:03:42.105Z,6.82
2023-02-11T15:06:48.686Z,6.62
2023-02-11T15:09:53.236Z,6.53
2023-02-11T15:12:56.360Z,6.35
2023-02-11T15:16:03.160Z,6.14
2023-02-11T15:19:08.220Z,5.99
2023-02-11T15:22:21.081Z,5.98
2023-02-11T15:25:33.012Z,5.92
2023-02-11T15:28:39.031Z,5.95
2023-02-11T15:31:43.261Z,5.97
2023-02-11T15:34:49.323Z,5.97
2023-02-11T15:37:53.576Z,5.92
2023-02-11T15:41:02.892Z,5.77
2023-02-11T15:44:08.130Z,5.76
2023-02-11T15:47:18.302Z,5.56
2023-02-11T15:50:26.602Z,5.46
2023-02-11T15:53:38.808Z,5.35
2023-02-11T15:56:46.286Z,5.22
2023-02-11T15:59:56.775Z,5.05
2023-02-11T16:03:00.573Z,4.95
2023-02-11T16:06:18.634Z,4.90
2023-02-11T16:09:27.336Z,4.76
2023-02-11T16:12:32.064Z,4.78
2023-02-11T16:15:35.262Z,4.74
2023-02-11T16:18:43.589Z,4.61
2023-02-11T16:21:52.965Z,4.59
2023-02-11T16:24:59.782Z,4.45
2023-02-11T16:28:05.182Z,4.43
2023-02-11T16:31:10.617Z,4.49
2023-02-11T16:34:18.597Z,4.41
2023-02-11T16:37:22.833Z,4.38
2023-02-11T16:40:26.417Z,4.34
2023-02-11T16:43:30.625Z,4.33
2023-02-11T16:46:39.572Z,4.35
2023-02-11T16:49:44.387Z,4.36
2023-02-11T16:52:47.951Z,4.34
2023-02-11T16:55:54.824Z,4.32
2023-02-11T16:58:58.084Z,4.30
2023-02-11T17:02:01.886Z,4.12
2023-02-11T17:05:06.706Z,4.06
2023-02-11T17:08:10.879Z,3.95
2023-02-11T17:11:18.394Z,3.89
2023-02-11T17:14:22.596Z,3.96
2023-02-11T17:17:27.162Z,3.99
2023-02-11T17:20:31.445Z,3.95
2023-02-11T17:23:35.906Z,3.93
2023-02-11T17:26:39.467Z,3.88
2023-02-11T17:29:44.952Z,3.81
2023-02-11T17:32:47.922Z,3.73
2023-02-11T17:35:51.740Z,3.63
2023-02-11T17:38:57.786Z,3.60
2023-02-11T17:42:04.489Z,3.59
2023-02-11T17:45:10.021Z,3.51
2023-02-11T17:48:13.032Z,3.56
2023-02-11T17:51:34.273Z,3.55
2023-02-11T17:54:39.472Z,3.56
2023-02-11T17:57:44.315Z,3.58
2023-02-11T18:00:49.008Z,3.61
2023-02-11T18:03:52.668Z,3.62
2023-02-11T18:06:57.066Z,3.61
2023-02-11T18:10:03.638Z,3.69
2023-02-11T18:13:07.037Z,3.67
2023-02-11T18:16:17.145Z,3.78
2023-02-11T18:19:20.717Z,3.79
2023-02-11T18:22:25.338Z,3.86
2023-02-11T18:25:28.937Z,3.88
2023-02-11T18:28:36.352Z,3.87
2023-02-11T18:31:45.005Z,3.85
2023-02-11T18:34:49.895Z,3.81
2023-02-11T18:37:54.323Z,3.69
2023-02-11T18:40:59.060Z,3.73
2023-02-11T18:44:12.794Z,3.68
2023-02-11T18:47:20.198Z,3.57
2023-02-11T18:53:47.248Z,3.58
2023-02-11T18:56:50.361Z,3.59
2023-02-11T18:59:56.109Z,3.67
2023-02-11T19:03:00.139Z,3.62
2023-02-11T19:06:03.632Z,3.63
2023-02-11T19:09:09.085Z,3.62
2023-02-11T19:12:13.285Z,3.61
2023-02-11T19:15:20.815Z,3.61
2023-02-11T19:18:23.295Z,3.64
2023-02-11T19:21:31.080Z,3.65
2023-02-11T19:24:37.868Z,3.58
2023-02-11T19:27:50.477Z,3.74
2023-02-11T19:30:54.374Z,3.68
2023-02-11T19:33:59.959Z,3.74
2023-02-11T19:37:13.620Z,3.75
2023-02-11T19:40:18.694Z,3.82
2023-02-11T19:43:23.455Z,3.85
2023-02-11T19:46:28.975Z,3.90
2023-02-11T19:49:35.651Z,4.06
2023-02-11T19:52:41.194Z,4.12
2023-02-11T19:55:44.695Z,4.12
2023-02-11T19:58:48.254Z,4.13
2023-02-11T20:01:54.423Z,4.19
2023-02-11T20:08:17.950Z,4.21
2023-02-11T20:11:27.862Z,4.15
2023-02-11T20:14:33.607Z,4.15
2023-02-11T20:17:37.097Z,4.08
2023-02-11T20:20:43.382Z,4.07
2023-02-11T20:23:57.367Z,4.10
2023-02-11T20:27:01.856Z,4.17
2023-02-11T20:30:05.702Z,4.07
2023-02-11T20:33:16.162Z,4.02
2023-02-11T20:36:20.046Z,4.01
2023-02-11T20:39:25.358Z,4.07
2023-02-11T20:42:31.653Z,4.11
2023-02-11T20:45:40.307Z,4.25
2023-02-11T20:48:45.451Z,4.41
2023-02-11T20:51:53.353Z,4.74
2023-02-11T20:54:58.468Z,4.92
2023-02-11T20:58:02.591Z,4.99
2023-02-11T21:01:17.803Z,5.07
2023-02-11T21:04:22.450Z,5.11
2023-02-11T21:07:32.760Z,5.18
2023-02-11T21:10:36.682Z,5.16
2023-02-11T21:13:42.536Z,5.21
2023-02-11T21:16:49.118Z,5.12
2023-02-11T21:19:54.568Z,5.13
2023-02-11T21:23:02.665Z,5.22
2023-02-11T21:26:11.802Z,5.28
2023-02-11T21:29:15.758Z,5.22
2023-02-11T21:32:19.957Z,5.20
2023-02-11T21:35:28.869Z,5.21
2023-02-11T21:38:37.873Z,5.07
2023-02-11T21:41:43.451Z,5.13
2023-02-11T21:44:48.377Z,5.19
2023-02-11T21:47:57.507Z,5.22
2023-02-11T21:51:06.566Z,5.18
2023-02-11T21:54:15.782Z,5.20
2023-02-11T21:57:18.771Z,5.16
2023-02-11T22:00:22.093Z,5.10
2023-02-11T22:03:25.686Z,5.06
2023-02-11T22:06:31.950Z,5.02
2023-02-11T22:09:35.947Z,4.96
2023-02-11T22:12:42.834Z,4.93
2023-02-11T22:15:46.459Z,4.83
2023-02-11T22:18:54.442Z,4.86
2023-02-11T22:21:57.777Z,4.79
2023-02-11T22:25:02.566Z,4.71
2023-02-11T22:28:06.216Z,4.66
2023-02-11T22:31:15.217Z,4.70
2023-02-11T22:34:23.344Z,4.66
2023-02-11T22:37:26.744Z,4.66
2023-02-11T22:40:29.633Z,4.61
2023-02-11T22:43:35.670Z,4.58
2023-02-11T22:46:42.678Z,4.58
2023-02-11T22:49:46.335Z,4.59
2023-02-11T22:52:51.391Z,4.56
2023-02-11T22:55:54.697Z,4.44
2023-02-11T22:58:59.135Z,4.42
2023-02-11T23:02:05.854Z,4.41
2023-02-11T23:05:10.353Z,4.41
2023-02-11T23:08:13.283Z,4.50
2023-02-11T23:11:21.760Z,4.48
2023-02-11T23:14:25.083Z,4.49
2023-02-11T23:20:50.910Z,4.47
2023-02-11T23:24:00.187Z,4.54
2023-02-11T23:27:07.374Z,4.53
2023-02-11T23:30:12.607Z,4.49
2023-02-11T23:33:21.100Z,4.41
2023-02-11T23:36:25.834Z,4.38
2023-02-11T23:39:31.093Z,4.38
2023-02-11T23:42:33.373Z,4.46
2023-02-11T23:45:38.386Z,4.47
2023-02-11T23:48:43.853Z,4.38
2023-02-11T23:51:50.325Z,4.38
2023-02-11T23:54:54.650Z,4.39
2023-02-11T23:57:57.134Z,4.32
